Time;durP1;ratioP1;P1;durP2;ratioP2;P2;SDS_P1;SDS_P2;PMS_P1;PMS_P2;Temp;Humidity;BMP_temperature;BMP_pressure;BME280_temperature;BME280_humidity;BME280_pressure;Samples;Min_cycle;Max_cycle;Signal;HPM_P1;HPM_P2
2024/01/19 00:00:56;;;;;;;6.70;2.22;;;-0.20;99.90;;;;;;5056653;28;20488;-63
2024/01/19 00:03:23;;;;;;;4.95;2.28;;;-0.30;99.90;;;;;;5055459;28;20049;-63
2024/01/19 00:05:50;;;;;;;3.55;2.20;;;-0.40;99.90;;;;;;5056278;28;20057;-63
2024/01/19 00:08:17;;;;;;;4.88;2.20;;;-0.40;99.90;;;;;;5055453;28;20095;-64
2024/01/19 00:10:45;;;;;;;2.95;2.10;;;-0.40;99.90;;;;;;5075187;28;20049;-64
2024/01/19 00:13:12;;;;;;;2.28;1.88;;;-0.40;99.90;;;;;;5074657;28;20142;-64
2024/01/19 00:15:39;;;;;;;4.95;2.30;;;-0.40;99.90;;;;;;5056969;28;20131;-64
2024/01/19 00:18:06;;;;;;;3.65;1.90;;;-0.30;99.90;;;;;;5056199;28;20045;-63
2024/01/19 00:20:33;;;;;;;4.10;2.10;;;-0.10;99.90;;;;;;5072300;28;20080;-63
2024/01/19 00:23:00;;;;;;;6.95;2.00;;;0.10;99.90;;;;;;5068242;28;20105;-64
2024/01/19 00:25:27;;;;;;;4.55;2.00;;;0.10;99.90;;;;;;5075548;28;20511;-63
2024/01/19 00:27:55;;;;;;;6.97;2.30;;;0.20;99.90;;;;;;5076221;28;20503;-63
2024/01/19 00:30:22;;;;;;;2.83;2.00;;;0.20;99.90;;;;;;5075667;28;20041;-63
2024/01/19 00:32:49;;;;;;;4.68;1.98;;;0.20;99.90;;;;;;5074538;28;20109;-63
2024/01/19 00:35:16;;;;;;;3.05;2.00;;;0.20;99.90;;;;;;5094856;28;20048;-64
2024/01/19 00:37:43;;;;;;;3.58;2.30;;;0.20;99.90;;;;;;5073205;28;20049;-64
2024/01/19 00:40:12;;;;;;;4.18;2.00;;;0.20;99.90;;;;;;5076034;28;20056;-64
2024/01/19 00:42:40;;;;;;;3.30;2.20;;;0.20;99.90;;;;;;5075879;28;20048;-64
2024/01/19 00:45:09;;;;;;;5.25;2.22;;;0.30;99.90;;;;;;5074828;28;20053;-64
2024/01/19 00:47:37;;;;;;;4.87;2.47;;;0.40;99.90;;;;;;5076263;28;20071;-64
2024/01/19 00:50:05;;;;;;;7.00;2.42;;;0.40;99.90;;;;;;5075408;28;20094;-64
2024/01/19 00:52:32;;;;;;;5.03;2.70;;;0.50;99.90;;;;;;5072503;28;20385;-63
2024/01/19 00:54:59;;;;;;;3.65;2.50;;;0.50;99.90;;;;;;5075013;28;20153;-64
2024/01/19 00:57:25;;;;;;;2.30;2.10;;;0.30;99.90;;;;;;5076410;28;20043;-63
2024/01/19 00:59:52;;;;;;;2.28;2.08;;;0.20;99.90;;;;;;5094399;28;20036;-64
2024/01/19 01:02:20;;;;;;;2.40;2.20;;;0.30;99.90;;;;;;5073950;28;20047;-64
2024/01/19 01:04:47;;;;;;;4.25;2.30;;;0.20;99.90;;;;;;5076311;28;20101;-63
2024/01/19 01:07:14;;;;;;;3.33;2.10;;;0.20;99.90;;;;;;5093941;28;20064;-63
2024/01/19 01:09:41;;;;;;;3.83;2.20;;;0.20;99.90;;;;;;5075854;28;20040;-63
2024/01/19 01:12:08;;;;;;;2.78;2.20;;;0.30;99.90;;;;;;5094197;28;20491;-63
2024/01/19 01:14:34;;;;;;;5.95;2.30;;;0.10;99.90;;;;;;5076201;28;20052;-63
2024/01/19 01:17:01;;;;;;;2.25;2.05;;;0.10;99.90;;;;;;5075450;28;20052;-63
2024/01/19 01:19:30;;;;;;;5.97;2.35;;;0.00;99.90;;;;;;5071964;28;20052;-63
2024/01/19 01:21:56;;;;;;;2.97;2.15;;;0.00;99.90;;;;;;5073861;28;20098;-64
2024/01/19 01:24:23;;;;;;;5.20;2.45;;;-0.20;99.90;;;;;;5073392;28;20048;-63
2024/01/19 01:26:50;;;;;;;4.63;2.40;;;-0.30;99.90;;;;;;5055519;28;20105;-63
2024/01/19 01:29:17;;;;;;;2.53;2.20;;;-0.40;99.90;;;;;;5054127;28;20511;-63
2024/01/19 01:31:44;;;;;;;3.17;2.20;;;-0.40;99.90;;;;;;5055755;28;20098;-63
2024/01/19 01:34:11;;;;;;;2.72;2.20;;;-0.50;99.90;;;;;;5073697;28;20052;-64
2024/01/19 01:36:39;;;;;;;3.38;2.20;;;-0.60;99.90;;;;;;5055047;28;20040;-63
2024/01/19 01:39:06;;;;;;;5.15;2.42;;;-0.60;99.90;;;;;;5055949;28;20052;-63
2024/01/19 01:41:33;;;;;;;3.08;2.30;;;-0.40;99.90;;;;;;5051792;28;20060;-63
2024/01/19 01:44:00;;;;;;;2.92;2.15;;;-0.70;99.90;;;;;;5054479;28;20056;-63
2024/01/19 01:46:27;;;;;;;4.22;2.67;;;-0.80;99.90;;;;;;5053781;28;20095;-63
2024/01/19 01:48:54;;;;;;;2.50;2.30;;;-0.90;99.90;;;;;;5073331;28;20097;-64
2024/01/19 01:51:21;;;;;;;7.80;2.60;;;-0.90;99.90;;;;;;5053216;28;20076;-64
2024/01/19 01:53:50;;;;;;;6.20;2.53;;;-1.00;99.90;;;;;;5055434;28;20131;-63
2024/01/19 01:56:16;;;;;;;2.88;2.53;;;-1.00;99.90;;;;;;5054337;28;20107;-63
2024/01/19 01:58:44;;;;;;;2.90;2.40;;;-1.00;99.90;;;;;;5052967;28;20044;-63
2024/01/19 02:01:11;;;;;;;4.03;2.83;;;-1.00;99.90;;;;;;5072936;28;20045;-63
2024/01/19 02:03:40;;;;;;;6.38;2.50;;;-1.00;99.90;;;;;;5051387;28;20049;-63
2024/01/19 02:06:07;;;;;;;3.20;2.42;;;-1.10;99.90;;;;;;5054770;28;20067;-63
2024/01/19 02:08:34;;;;;;;3.50;2.45;;;-1.00;99.90;;;;;;5053472;28;20053;-63
2024/01/19 02:11:02;;;;;;;3.83;2.33;;;-1.00;99.90;;;;;;5054847;28;20086;-63
2024/01/19 02:13:29;;;;;;;5.05;2.63;;;-0.90;99.90;;;;;;5053730;28;20056;-63
2024/01/19 02:15:59;;;;;;;5.32;2.90;;;-0.70;99.90;;;;;;5050873;28;20041;-64
2024/01/19 02:18:26;;;;;;;;;;;0.70;99.90;;;;;;5054870;28;20056;-64
2024/01/19 02:20:54;;;;;;;10.13;3.08;;;-0.30;99.90;;;;;;5055077;28;19920;-64
2024/01/19 02:23:22;;;;;;;4.05;2.70;;;1.00;99.90;;;;;;5065445;28;20113;-64
2024/01/19 02:25:50;;;;;;;7.68;2.90;;;-0.30;99.90;;;;;;5073644;28;20456;-64
2024/01/19 02:28:18;;;;;;;4.25;2.60;;;0.00;99.90;;;;;;5073529;28;20044;-64
2024/01/19 02:30:45;;;;;;;5.88;3.10;;;0.00;99.90;;;;;;5092677;28;20044;-64
2024/01/19 02:33:12;;;;;;;6.63;2.78;;;-0.20;99.90;;;;;;5074394;28;20052;-64
2024/01/19 02:35:39;;;;;;;3.03;2.60;;;-0.10;99.90;;;;;;5074831;28;20113;-64
2024/01/19 02:38:06;;;;;;;3.95;2.83;;;-0.10;99.90;;;;;;5074704;28;20044;-63
2024/01/19 02:40:33;;;;;;;6.75;2.72;;;-0.20;99.90;;;;;;5074467;28;20104;-63
2024/01/19 02:43:01;;;;;;;7.20;2.95;;;-0.20;99.90;;;;;;5074378;28;20143;-63
2024/01/19 02:45:28;;;;;;;7.05;2.65;;;-0.30;99.90;;;;;;5074778;28;20048;-63
2024/01/19 02:47:55;;;;;;;5.13;2.80;;;-0.30;99.90;;;;;;5071773;28;20098;-63
2024/01/19 02:50:22;;;;;;;4.97;2.65;;;-0.40;99.90;;;;;;5092640;28;20047;-63
2024/01/19 02:52:48;;;;;;;5.85;3.47;;;-0.50;99.90;;;;;;5090288;28;20039;-63
2024/01/19 02:55:15;;;;;;;7.63;2.60;;;-0.60;99.90;;;;;;5091915;28;20044;-63
2024/01/19 02:57:42;;;;;;;2.88;2.50;;;-0.70;99.90;;;;;;5074224;28;20044;-63
2024/01/19 03:00:12;;;;;;;3.47;2.70;;;-0.80;99.90;;;;;;5092358;28;20055;-63
2024/01/19 03:02:39;;;;;;;6.38;2.97;;;-0.90;99.90;;;;;;5091751;28;20040;-63
2024/01/19 03:05:07;;;;;;;8.00;3.17;;;-1.00;99.90;;;;;;5074519;28;20537;-64
2024/01/19 03:07:33;;;;;;;5.45;2.90;;;-1.10;99.90;;;;;;5073793;28;20499;-63
2024/01/19 03:10:00;;;;;;;4.82;2.88;;;-1.10;99.90;;;;;;5072596;28;20064;-62
2024/01/19 03:12:27;;;;;;;7.65;3.00;;;-1.20;99.90;;;;;;5073729;28;20098;-63
2024/01/19 03:14:54;;;;;;;5.10;2.67;;;-1.20;99.90;;;;;;5072252;28;20133;-63
2024/01/19 03:17:22;;;;;;;6.30;3.00;;;-1.30;99.90;;;;;;5073621;28;20112;-63
2024/01/19 03:19:50;;;;;;;8.45;3.00;;;-1.20;99.90;;;;;;5073270;28;20549;-64
2024/01/19 03:22:17;;;;;;;10.57;2.92;;;-0.80;99.90;;;;;;5085256;28;20048;-64
2024/01/19 03:24:44;;;;;;;4.18;2.70;;;-0.90;99.90;;;;;;5054030;28;20064;-64
2024/01/19 03:27:10;;;;;;;4.22;2.70;;;-1.30;99.90;;;;;;5052808;28;20087;-64
2024/01/19 03:29:37;;;;;;;6.18;3.42;;;-1.30;99.90;;;;;;5056019;28;20385;-64
2024/01/19 03:32:05;;;;;;;3.70;2.83;;;-1.30;99.90;;;;;;5057091;28;20044;-64
2024/01/19 03:34:33;;;;;;;8.05;3.08;;;-1.20;99.90;;;;;;5058335;28;20105;-63
2024/01/19 03:37:03;;;;;;;5.93;3.00;;;-1.20;99.90;;;;;;5057394;28;20049;-63
2024/01/19 03:39:31;;;;;;;8.80;3.30;;;-1.10;99.90;;;;;;5057996;28;20137;-63
2024/01/19 03:41:58;;;;;;;6.82;3.13;;;-0.70;99.90;;;;;;5055830;28;20056;-64
2024/01/19 03:44:25;;;;;;;4.20;2.92;;;-0.90;99.90;;;;;;5057363;28;20059;-63
2024/01/19 03:46:51;;;;;;;10.13;3.00;;;-0.80;99.90;;;;;;5057986;28;20090;-63
2024/01/19 03:49:18;;;;;;;3.83;3.25;;;-0.70;99.90;;;;;;5057701;28;20048;-63
2024/01/19 03:51:59;;;;;;;6.68;3.10;;;-0.70;99.90;;;;;;5075078;28;20094;-63
2024/01/19 03:54:26;;;;;;;;;;;-0.60;99.90;;;;;;5076286;28;20072;-63
2024/01/19 03:56:53;;;;;;;7.60;3.00;;;-0.60;99.90;;;;;;5056943;28;19928;-63
2024/01/19 03:59:20;;;;;;;6.03;3.10;;;-0.60;99.90;;;;;;5075624;28;20446;-63
2024/01/19 04:01:47;;;;;;;7.88;3.35;;;-0.70;99.90;;;;;;5057625;28;20442;-63
2024/01/19 04:04:14;;;;;;;4.82;2.80;;;-0.70;99.90;;;;;;5075151;28;20059;-64
2024/01/19 04:06:41;;;;;;;6.25;3.10;;;-0.70;99.90;;;;;;5057458;28;20055;-63
2024/01/19 04:09:09;;;;;;;7.78;2.60;;;-0.80;99.90;;;;;;5057347;28;20106;-63
2024/01/19 04:11:36;;;;;;;6.80;2.60;;;0.30;99.90;;;;;;5056721;28;20052;-63
2024/01/19 04:14:03;;;;;;;7.20;2.97;;;-0.90;99.90;;;;;;5057311;28;20458;-63
2024/01/19 04:16:30;;;;;;;8.60;3.00;;;-0.90;99.90;;;;;;5057401;28;20090;-64
2024/01/19 04:18:57;;;;;;;10.27;2.90;;;-1.00;99.90;;;;;;5074225;28;20548;-63
2024/01/19 04:21:24;;;;;;;5.00;2.70;;;-1.00;99.90;;;;;;5057429;28;20389;-63
2024/01/19 04:23:51;;;;;;;5.53;2.90;;;-1.00;99.90;;;;;;5069968;28;20098;-63
2024/01/19 04:26:19;;;;;;;5.10;2.72;;;-1.10;99.90;;;;;;5075637;28;20044;-64
2024/01/19 04:28:46;;;;;;;7.57;3.15;;;-1.10;99.90;;;;;;5075278;28;20079;-64
2024/01/19 04:31:13;;;;;;;6.05;2.88;;;-1.10;99.90;;;;;;5076572;28;20101;-62
2024/01/19 04:33:40;;;;;;;10.25;3.35;;;-1.10;99.90;;;;;;5075304;28;20047;-62
2024/01/19 04:36:08;;;;;;;7.88;3.33;;;-1.10;99.90;;;;;;5076741;28;20515;-62
2024/01/19 04:38:35;;;;;;;13.38;3.55;;;-1.20;99.90;;;;;;5076612;28;20446;-63
2024/01/19 04:41:02;;;;;;;8.13;3.83;;;-1.20;99.90;;;;;;5093239;28;20071;-63
2024/01/19 04:43:31;;;;;;;8.13;3.05;;;0.30;99.90;;;;;;5076708;28;20047;-63
2024/01/19 04:45:58;;;;;;;11.10;3.35;;;-1.30;99.90;;;;;;5095060;28;20067;-64
2024/01/19 04:48:25;;;;;;;9.68;3.70;;;-1.40;99.90;;;;;;5076448;28;20047;-65
2024/01/19 04:50:52;;;;;;;9.10;2.90;;;-1.10;99.90;;;;;;5076685;28;20105;-64
2024/01/19 04:53:19;;;;;;;8.25;2.83;;;-1.40;99.90;;;;;;5076325;28;20457;-64
2024/01/19 04:55:46;;;;;;;7.28;3.47;;;-1.50;99.90;;;;;;5094571;28;20458;-64
2024/01/19 04:58:13;;;;;;;7.43;2.90;;;-1.50;99.90;;;;;;5076518;28;20105;-63
2024/01/19 05:00:41;;;;;;;11.10;2.90;;;-1.40;99.90;;;;;;5076134;28;20105;-63
2024/01/19 05:03:08;;;;;;;11.02;3.40;;;-1.50;99.90;;;;;;5094621;28;20093;-63
2024/01/19 05:05:34;;;;;;;6.57;3.20;;;-1.60;99.90;;;;;;5094483;28;20048;-63
2024/01/19 05:08:01;;;;;;;10.95;3.70;;;-1.60;99.90;;;;;;5075968;28;20056;-62
2024/01/19 05:10:28;;;;;;;4.80;3.00;;;-1.60;99.90;;;;;;5076335;28;20097;-63
2024/01/19 05:12:55;;;;;;;7.50;3.50;;;-1.60;99.90;;;;;;5076113;28;20105;-62
2024/01/19 05:15:22;;;;;;;8.77;2.80;;;-1.70;99.90;;;;;;5075532;28;20101;-62
2024/01/19 05:17:50;;;;;;;7.15;2.90;;;-1.30;99.90;;;;;;5067260;28;20062;-63
2024/01/19 05:20:18;;;;;;;10.57;3.53;;;-1.50;99.90;;;;;;5073898;28;20135;-62
2024/01/19 05:22:45;;;;;;;7.95;3.40;;;-1.60;99.90;;;;;;5074384;28;20059;-63
2024/01/19 05:25:12;;;;;;;6.22;3.17;;;-1.50;99.90;;;;;;5092004;28;20047;-63
2024/01/19 05:27:39;;;;;;;16.65;3.30;;;-1.40;99.90;;;;;;5090238;28;20043;-62
2024/01/19 05:30:07;;;;;;;9.60;3.72;;;-1.00;99.90;;;;;;5073713;28;20045;-62
2024/01/19 05:32:35;;;;;;;4.90;2.90;;;-1.00;99.90;;;;;;5073846;28;20101;-62
2024/01/19 05:35:03;;;;;;;5.28;2.60;;;-0.90;99.90;;;;;;5072000;28;20080;-63
2024/01/19 05:37:30;;;;;;;7.20;3.15;;;-0.80;99.90;;;;;;5089994;28;20040;-63
2024/01/19 05:39:57;;;;;;;5.18;2.80;;;-0.90;99.90;;;;;;5073499;28;20044;-63
2024/01/19 05:42:24;;;;;;;8.85;3.45;;;-0.90;99.90;;;;;;5070462;28;20523;-63
2024/01/19 05:44:51;;;;;;;8.27;3.10;;;-1.10;99.90;;;;;;5074192;28;20122;-63
2024/01/19 05:47:17;;;;;;;8.82;3.30;;;-0.60;99.90;;;;;;5073596;28;20048;-62
2024/01/19 05:49:44;;;;;;;6.68;2.85;;;-1.20;99.90;;;;;;5073898;28;20067;-62
2024/01/19 05:52:13;;;;;;;8.90;3.42;;;-1.30;99.90;;;;;;5068899;28;20055;-63
2024/01/19 05:54:40;;;;;;;7.38;3.60;;;-1.40;99.90;;;;;;5091391;28;20445;-62
2024/01/19 05:57:09;;;;;;;9.63;3.60;;;-1.50;99.90;;;;;;5073009;28;20053;-63
2024/01/19 05:59:38;;;;;;;6.93;3.42;;;-1.60;99.90;;;;;;5073302;28;20045;-62
2024/01/19 06:02:05;;;;;;;10.15;3.33;;;-1.60;99.90;;;;;;5072510;28;20056;-63
2024/01/19 06:04:33;;;;;;;8.38;4.28;;;-1.60;99.90;;;;;;5072692;28;20389;-63
2024/01/19 06:07:00;;;;;;;6.88;3.60;;;-1.60;99.90;;;;;;5074128;28;20079;-63
2024/01/19 06:09:28;;;;;;;8.13;3.95;;;-1.50;99.90;;;;;;5073222;28;20052;-63
2024/01/19 06:11:55;;;;;;;10.05;3.72;;;-1.30;99.90;;;;;;5072005;28;20048;-63
2024/01/19 06:14:21;;;;;;;9.98;3.30;;;-1.20;99.90;;;;;;5073780;28;20110;-63
2024/01/19 06:16:48;;;;;;;8.05;4.07;;;-1.10;99.90;;;;;;5092169;28;20381;-63
2024/01/19 06:19:15;;;;;;;12.23;3.55;;;-1.10;99.90;;;;;;5092118;28;20048;-63
2024/01/19 06:21:45;;;;;;;11.02;3.40;;;-1.00;99.90;;;;;;5073054;28;20052;-63
2024/01/19 06:24:14;;;;;;;5.78;2.60;;;-0.90;99.90;;;;;;5071993;28;20125;-64
2024/01/19 06:26:45;;;;;;;5.97;2.67;;;-0.90;99.90;;;;;;5072545;28;20102;-63
2024/01/19 06:29:12;;;;;;;5.53;3.10;;;-0.90;99.90;;;;;;5067269;28;20488;-63
2024/01/19 06:31:44;;;;;;;7.22;3.38;;;-1.00;99.90;;;;;;5073216;28;20553;-63
2024/01/19 06:34:11;;;;;;;3.45;3.05;;;-0.80;99.90;;;;;;5088574;28;20446;-63
2024/01/19 06:36:38;;;;;;;8.60;3.17;;;-1.00;99.90;;;;;;5091636;28;20475;-63
2024/01/19 06:39:07;;;;;;;8.50;3.50;;;-1.10;99.90;;;;;;5063986;28;20055;-63
2024/01/19 06:41:34;;;;;;;13.00;3.30;;;-1.30;99.90;;;;;;5069325;28;20056;-63
2024/01/19 06:44:02;;;;;;;4.88;2.80;;;-1.30;99.90;;;;;;5070996;28;20059;-63
2024/01/19 06:46:29;;;;;;;10.38;3.55;;;-1.30;99.90;;;;;;5086459;28;20040;-63
2024/01/19 06:48:56;;;;;;;7.93;3.13;;;-1.00;99.90;;;;;;5069601;28;20048;-63
2024/01/19 06:51:24;;;;;;;9.48;3.13;;;-1.40;99.90;;;;;;5072321;28;20097;-64
2024/01/19 06:53:52;;;;;;;7.22;2.90;;;-1.40;99.90;;;;;;5086764;28;20123;-63
2024/01/19 06:56:19;;;;;;;5.20;2.67;;;-1.40;99.90;;;;;;5072250;28;20048;-63
2024/01/19 06:58:45;;;;;;;7.90;2.97;;;-1.40;99.90;;;;;;5068481;28;20052;-63
2024/01/19 07:01:14;;;;;;;5.43;2.53;;;-1.40;99.90;;;;;;5081820;28;20055;-64
2024/01/19 07:03:41;;;;;;;7.82;3.03;;;-1.50;99.90;;;;;;5090840;28;20075;-63
2024/01/19 07:06:08;;;;;;;7.93;3.03;;;-1.60;99.90;;;;;;5072382;28;20052;-63
2024/01/19 07:08:34;;;;;;;7.07;3.20;;;-1.60;99.90;;;;;;5071678;28;20047;-63
2024/01/19 07:11:02;;;;;;;7.50;3.20;;;-1.70;99.90;;;;;;5072657;28;20491;-63
2024/01/19 07:13:29;;;;;;;7.03;3.10;;;-1.70;99.90;;;;;;5072069;28;20044;-63
2024/01/19 07:15:55;;;;;;;9.52;3.47;;;-1.70;99.90;;;;;;5071199;28;20445;-62
2024/01/19 07:18:24;;;;;;;12.02;3.50;;;-1.80;99.90;;;;;;5091658;28;20480;-63
2024/01/19 07:20:50;;;;;;;11.60;3.33;;;-1.80;99.90;;;;;;5068116;28;20052;-63
2024/01/19 07:23:17;;;;;;;11.50;3.42;;;-1.80;99.90;;;;;;5072838;28;20060;-64
2024/01/19 07:25:44;;;;;;;8.75;3.80;;;-1.80;99.90;;;;;;5068661;28;20059;-63
2024/01/19 07:28:11;;;;;;;7.35;3.65;;;-1.60;99.90;;;;;;5072817;28;20090;-63
2024/01/19 07:30:39;;;;;;;18.80;4.07;;;-1.70;99.90;;;;;;5071199;28;20109;-63
2024/01/19 07:33:06;;;;;;;11.23;3.63;;;-1.60;99.90;;;;;;5074001;28;20089;-63
2024/01/19 07:35:35;;;;;;;15.10;3.97;;;-1.50;99.90;;;;;;5073171;28;20055;-64
2024/01/19 07:38:02;;;;;;;9.50;3.30;;;-1.10;99.90;;;;;;5073560;28;20059;-64
2024/01/19 07:40:28;;;;;;;7.20;3.88;;;-1.40;99.90;;;;;;5072890;28;20434;-63
2024/01/19 07:42:55;;;;;;;9.65;3.33;;;-0.90;99.90;;;;;;5091030;28;20121;-63
2024/01/19 07:45:22;;;;;;;7.95;3.50;;;-1.20;99.90;;;;;;5073628;28;20450;-63
2024/01/19 07:47:49;;;;;;;7.95;3.25;;;-1.20;99.90;;;;;;5073658;28;20740;-63
2024/01/19 07:50:16;;;;;;;8.88;3.60;;;-1.20;99.90;;;;;;5072838;28;20518;-63
2024/01/19 07:52:44;;;;;;;15.60;3.90;;;-1.10;99.90;;;;;;5091716;28;20360;-63
2024/01/19 07:55:11;;;;;;;8.07;4.18;;;-1.00;99.90;;;;;;5073397;28;20052;-63
2024/01/19 07:57:38;;;;;;;8.05;3.50;;;-1.00;99.90;;;;;;5072812;28;20113;-63
2024/01/19 08:00:06;;;;;;;8.05;3.13;;;-0.90;99.90;;;;;;5073213;28;20188;-63
2024/01/19 08:02:33;;;;;;;12.13;3.28;;;-0.80;99.90;;;;;;5069227;28;20404;-63
2024/01/19 08:05:00;;;;;;;4.32;3.05;;;-0.70;99.90;;;;;;5072112;28;20048;-63
2024/01/19 08:07:27;;;;;;;9.75;3.83;;;-0.70;99.90;;;;;;5071555;28;20469;-63
2024/01/19 08:09:56;;;;;;;7.80;3.28;;;-0.70;99.90;;;;;;5072631;28;20492;-63
2024/01/19 08:12:22;;;;;;;12.35;3.47;;;-0.70;99.90;;;;;;5090502;28;20105;-63
2024/01/19 08:14:50;;;;;;;11.00;3.35;;;-0.70;99.90;;;;;;5074073;28;20488;-62
2024/01/19 08:17:17;;;;;;;5.80;3.17;;;-0.80;99.90;;;;;;5075553;28;20074;-62
2024/01/19 08:19:44;;;;;;;8.23;3.28;;;-0.80;99.90;;;;;;5075751;28;20049;-63
2024/01/19 08:22:13;;;;;;;5.97;3.03;;;-0.50;99.90;;;;;;5071803;28;20056;-61
2024/01/19 08:24:40;;;;;;;7.47;3.25;;;-0.80;99.90;;;;;;5091593;28;20059;-62
2024/01/19 08:27:08;;;;;;;6.28;3.15;;;-0.80;99.90;;;;;;5094770;28;20093;-63
2024/01/19 08:29:35;;;;;;;6.70;3.58;;;-0.40;99.90;;;;;;5075540;28;20503;-63
2024/01/19 08:32:02;;;;;;;10.80;3.50;;;0.20;99.90;;;;;;5075942;28;20488;-62
2024/01/19 08:34:29;;;;;;;6.72;3.75;;;0.90;99.90;;;;;;5076975;28;20051;-62
2024/01/19 08:36:56;;;;;;;11.55;4.03;;;1.70;99.90;;;;;;5074654;28;20451;-63
2024/01/19 08:39:23;;;;;;;6.32;3.15;;;2.20;99.90;;;;;;5075521;28;20041;-62
2024/01/19 08:41:50;;;;;;;9.43;3.40;;;2.80;99.90;;;;;;5074925;28;20056;-62
2024/01/19 08:44:18;;;;;;;6.13;2.97;;;3.30;99.90;;;;;;5075749;28;20059;-63
2024/01/19 08:46:45;;;;;;;9.63;3.20;;;3.60;99.90;;;;;;5074402;28;20048;-62
2024/01/19 08:49:13;;;;;;;8.32;3.10;;;3.60;99.90;;;;;;5094656;28;20048;-62
2024/01/19 08:51:40;;;;;;;6.97;3.03;;;4.20;99.90;;;;;;5075266;28;20049;-63
2024/01/19 08:54:07;;;;;;;7.75;3.33;;;4.10;99.90;;;;;;5075329;28;20499;-62
2024/01/19 08:56:34;;;;;;;8.88;3.08;;;4.70;99.90;;;;;;5075325;28;20098;-62
2024/01/19 08:59:01;;;;;;;6.30;3.00;;;5.20;99.90;;;;;;5072795;28;20051;-62
2024/01/19 09:01:31;;;;;;;9.07;3.03;;;5.50;99.90;;;;;;5075708;28;20090;-63
2024/01/19 09:03:58;;;;;;;10.27;3.20;;;5.40;99.90;;;;;;5074927;28;20072;-63
2024/01/19 09:06:25;;;;;;;8.88;3.30;;;6.10;99.90;;;;;;5086255;28;20479;-63
2024/01/19 09:08:52;;;;;;;6.13;2.80;;;6.40;99.90;;;;;;5090868;28;20422;-63
2024/01/19 09:11:19;;;;;;;6.53;2.65;;;7.10;99.90;;;;;;5087930;28;20392;-63
2024/01/19 09:13:45;;;;;;;8.43;3.25;;;7.50;99.90;;;;;;5068855;28;20442;-63
2024/01/19 09:16:12;;;;;;;8.82;3.17;;;7.70;99.90;;;;;;5088759;28;20449;-64
2024/01/19 09:18:42;;;;;;;6.60;2.60;;;8.30;99.90;;;;;;5072635;28;20043;-63
2024/01/19 09:21:15;;;;;;;6.55;3.00;;;8.80;99.90;;;;;;5067045;28;20094;-63
2024/01/19 09:23:42;;;;;;;5.60;2.75;;;9.00;99.90;;;;;;5066318;28;20048;-63
2024/01/19 09:26:17;;;;;;;8.98;3.58;;;8.50;99.90;;;;;;5066838;28;20051;-64
2024/01/19 09:28:43;;;;;;;8.75;3.15;;;8.90;99.90;;;;;;5072156;28;20056;-63
2024/01/19 09:31:10;;;;;;;7.07;3.00;;;9.20;99.90;;;;;;5074597;28;20048;-64
2024/01/19 09:33:37;;;;;;;6.82;2.72;;;9.70;99.90;;;;;;5075777;28;20108;-64
2024/01/19 09:36:06;;;;;;;11.00;2.92;;;9.70;99.90;;;;;;5073856;28;20087;-64
2024/01/19 09:38:35;;;;;;;8.00;2.78;;;10.00;99.90;;;;;;5073665;28;20523;-64
2024/01/19 09:41:08;;;;;;;7.32;2.95;;;10.00;99.90;;;;;;5075266;28;20097;-63
2024/01/19 09:43:35;;;;;;;7.15;2.65;;;10.30;99.90;;;;;;5074467;28;20503;-64
2024/01/19 09:46:06;;;;;;;7.70;2.70;;;10.30;99.90;;;;;;5073867;28;20408;-63
2024/01/19 09:48:49;;;;;;;6.30;2.65;;;10.60;99.20;;;;;;5075949;28;20105;-62
2024/01/19 09:51:17;;;;;;;7.95;2.50;;;10.80;99.10;;;;;;5072087;28;20052;-62
2024/01/19 09:53:53;;;;;;;6.60;2.92;;;10.80;99.90;;;;;;5068690;28;20044;-63
2024/01/19 09:56:20;;;;;;;8.75;2.65;;;10.90;98.90;;;;;;5069333;28;20052;-64
2024/01/19 09:58:50;;;;;;;8.48;2.90;;;10.40;98.30;;;;;;5070646;28;20098;-64
2024/01/19 10:01:17;;;;;;;8.70;2.67;;;10.80;99.70;;;;;;5068917;28;20404;-63
2024/01/19 10:03:44;;;;;;;4.97;2.40;;;11.10;98.70;;;;;;5070547;28;20380;-63
2024/01/19 10:06:13;;;;;;;7.50;2.75;;;10.30;97.90;;;;;;5074888;28;20052;-64
2024/01/19 10:08:42;;;;;;;7.88;2.85;;;10.60;98.30;;;;;;5070768;28;20098;-63
2024/01/19 10:11:09;;;;;;;8.40;2.97;;;11.10;98.50;;;;;;5092759;28;20043;-63
2024/01/19 10:13:36;;;;;;;9.90;2.95;;;11.10;97.50;;;;;;5073463;28;20143;-63
2024/01/19 10:16:03;;;;;;;8.63;2.35;;;10.20;98.10;;;;;;5074719;28;20048;-64
2024/01/19 10:18:30;;;;;;;10.25;2.78;;;8.80;99.90;;;;;;5092325;28;20192;-64
2024/01/19 10:20:57;;;;;;;5.60;2.50;;;8.20;99.90;;;;;;5072895;28;20453;-64
2024/01/19 10:23:24;;;;;;;9.48;2.75;;;8.80;99.90;;;;;;5061297;28;20074;-64
2024/01/19 10:25:53;;;;;;;8.10;3.25;;;9.10;99.90;;;;;;5052464;28;20561;-63
2024/01/19 10:28:31;;;;;;;11.43;2.88;;;10.00;99.90;;;;;;5053699;28;20048;-63
2024/01/19 10:31:15;;;;;;;6.05;2.38;;;10.70;98.40;;;;;;5071415;28;20045;-63
2024/01/19 10:33:49;;;;;;;8.23;3.17;;;11.00;98.20;;;;;;5053504;28;20057;-63
2024/01/19 10:36:16;;;;;;;5.55;2.30;;;11.10;96.60;;;;;;5050946;28;20060;-64
2024/01/19 10:38:43;;;;;;;5.10;2.53;;;12.50;96.60;;;;;;5049704;28;20500;-64
2024/01/19 10:41:16;;;;;;;6.88;2.50;;;12.50;96.30;;;;;;5072276;28;20488;-65
2024/01/19 10:43:43;;;;;;;10.98;3.35;;;12.80;94.70;;;;;;5054661;28;20056;-64
2024/01/19 10:46:21;;;;;;;6.43;2.58;;;13.00;95.00;;;;;;5071493;28;20044;-63
2024/01/19 10:48:50;;;;;;;9.38;2.78;;;13.00;94.70;;;;;;5053633;28;20132;-63
2024/01/19 10:51:19;;;;;;;9.32;2.92;;;12.40;95.30;;;;;;5072099;28;20098;-64
2024/01/19 10:53:47;;;;;;;7.93;2.90;;;12.60;94.50;;;;;;5051870;28;20444;-64
2024/01/19 10:56:23;;;;;;;15.05;3.10;;;12.10;94.70;;;;;;5053770;28;20428;-63
2024/01/19 10:58:50;;;;;;;7.32;3.13;;;12.90;94.60;;;;;;5052950;28;20044;-64
2024/01/19 11:01:18;;;;;;;6.88;2.28;;;13.60;93.20;;;;;;5048050;28;20059;-64
2024/01/19 11:03:45;;;;;;;11.07;2.40;;;13.30;94.30;;;;;;5068361;28;20497;-63
2024/01/19 11:06:13;;;;;;;6.50;2.70;;;13.40;94.30;;;;;;5063676;28;20048;-64
2024/01/19 11:08:40;;;;;;;12.55;2.85;;;13.00;94.80;;;;;;5053259;28;20048;-64
2024/01/19 11:11:09;;;;;;;7.55;2.40;;;13.50;93.90;;;;;;5051863;28;20061;-64
2024/01/19 11:13:41;;;;;;;7.05;2.60;;;13.30;93.90;;;;;;5048895;28;20057;-64
2024/01/19 11:16:12;;;;;;;7.97;2.60;;;13.30;93.20;;;;;;5052971;28;20095;-64
2024/01/19 11:18:39;;;;;;;7.43;2.95;;;13.00;93.20;;;;;;5052474;28;20496;-64
2024/01/19 11:21:07;;;;;;;8.93;3.15;;;13.10;92.60;;;;;;5052537;28;20052;-64
2024/01/19 11:23:35;;;;;;;9.80;2.40;;;13.50;91.70;;;;;;5065194;28;20516;-64
2024/01/19 11:26:14;;;;;;;8.50;2.85;;;13.30;92.20;;;;;;5091102;28;20095;-64
2024/01/19 11:28:52;;;;;;;5.18;2.10;;;13.80;92.20;;;;;;5071579;28;20052;-64
2024/01/19 11:31:22;;;;;;;7.63;2.40;;;13.70;91.90;;;;;;5071242;28;20052;-65
2024/01/19 11:33:49;;;;;;;8.75;2.63;;;13.50;92.60;;;;;;5071230;28;20053;-64
2024/01/19 11:36:49;;;;;;;5.43;2.05;;;13.10;92.20;;;;;;5070720;28;20415;-64
2024/01/19 11:39:41;;;;;;;7.40;2.00;;;12.80;93.20;;;;;;5063920;28;20044;-63
2024/01/19 11:42:08;;;;;;;9.48;2.35;;;12.80;92.50;;;;;;5059430;28;20350;-63
2024/01/19 11:44:45;;;;;;;4.90;2.08;;;13.10;92.90;;;;;;5073216;28;20399;-63
2024/01/19 11:47:40;;;;;;;7.05;2.63;;;12.60;92.30;;;;;;5072336;28;20080;-63
2024/01/19 11:50:09;;;;;;;5.60;2.30;;;12.80;93.00;;;;;;5029135;28;20055;-63
2024/01/19 11:52:40;;;;;;;5.78;2.30;;;13.20;93.10;;;;;;5095023;28;20105;-63
2024/01/19 11:55:39;;;;;;;4.68;1.90;;;12.80;93.40;;;;;;5077067;28;20052;-63
2024/01/19 11:58:38;;;;;;;8.82;2.45;;;12.80;93.00;;;;;;5077435;28;20108;-64
2024/01/19 12:01:07;;;;;;;6.45;2.30;;;13.80;92.60;;;;;;5074504;28;20059;-64
2024/01/19 12:03:34;;;;;;;4.32;2.30;;;13.50;93.00;;;;;;5076510;28;20048;-64
2024/01/19 12:06:03;;;;;;;9.05;2.75;;;13.00;93.20;;;;;;5077189;28;20052;-63
2024/01/19 12:08:30;;;;;;;9.02;2.33;;;13.00;93.30;;;;;;5077330;28;20044;-64
2024/01/19 12:11:08;;;;;;;8.68;2.03;;;13.60;93.70;;;;;;5075904;28;20441;-63
2024/01/19 12:13:38;;;;;;;6.65;2.13;;;13.80;92.60;;;;;;5093074;28;20093;-63
2024/01/19 12:16:07;;;;;;;6.63;2.25;;;13.60;92.90;;;;;;5076820;28;20084;-63
2024/01/19 12:18:34;;;;;;;6.97;2.72;;;13.70;92.60;;;;;;5075383;28;20052;-63
2024/01/19 12:21:02;;;;;;;7.78;2.13;;;13.50;92.70;;;;;;5076764;28;20044;-64
2024/01/19 12:23:30;;;;;;;5.47;2.15;;;13.60;92.80;;;;;;5076014;28;20055;-63
2024/01/19 12:25:58;;;;;;;9.32;2.17;;;13.00;92.90;;;;;;5077089;28;20130;-64
2024/01/19 12:28:26;;;;;;;7.72;2.67;;;13.00;93.00;;;;;;5076849;28;20091;-64
2024/01/19 12:30:52;;;;;;;4.93;2.20;;;13.10;93.70;;;;;;5076283;28;20094;-64
2024/01/19 12:33:25;;;;;;;4.60;2.58;;;13.80;93.20;;;;;;5080339;28;20048;-64
2024/01/19 12:36:04;;;;;;;4.28;2.08;;;14.10;92.50;;;;;;5099629;28;20052;-64
2024/01/19 12:38:31;;;;;;;5.88;2.00;;;14.50;91.90;;;;;;5079184;28;20052;-63
2024/01/19 12:40:58;;;;;;;6.32;2.08;;;13.90;92.00;;;;;;5097892;28;20101;-64
2024/01/19 12:43:29;;;;;;;4.93;1.88;;;13.80;92.40;;;;;;5098418;28;20056;-64
2024/01/19 12:46:02;;;;;;;6.63;2.28;;;13.70;93.00;;;;;;5081447;28;20083;-64
2024/01/19 12:48:30;;;;;;;5.93;2.50;;;13.40;92.30;;;;;;5079310;28;20388;-64
2024/01/19 12:50:57;;;;;;;8.80;2.13;;;12.60;93.20;;;;;;5075473;28;20094;-64
2024/01/19 12:53:24;;;;;;;5.85;2.20;;;13.30;92.40;;;;;;5075917;28;20048;-64